Latest Weather Observations for Wangaratta

IDV60801

Issued at 1:12 am EST Saturday 15 August 2020 (issued every 10 minutes, with the page automatically refreshed every 10 minutes)

About weather observations | Map of weather stations | Latest weather observations for VIC | Other Formats
Station Details ID: 082138 Name: WANGARATTA AERO Lat: -36.42 Lon: 146.31 Height: 152.6 m
Data from the previous 72 hours. | See also: Recent months at Wangaratta
Date/Time
EST
Temp
°C
App
Temp
°C
Dew
Point
°C
Rel
Hum
%
Delta-T
°C
Wind Press
QNH
hPa
Press
MSL
hPa
Rain since
9am
mm
Dir  Spd
km/h
Gust
km/h
Spd
kts
Gust
kts
15/01:00am 9.9 9.2 9.9 100 0.0 NW 4 6 2 3 1012.6 1012.8 1.8
15/12:30am 9.9 9.9 9.9 100 0.0 CALM 0 6 0 3 1012.6 1012.8 1.8
15/12:21am 10.0 10.1 10.0 100 0.0 CALM 0 0 0 0 1012.6 1012.8 1.8
15/12:00am 10.4 9.2 10.4 100 0.0 N 7 7 4 4 1012.7 1012.9 1.8
 
Date/Time
EST
Temp
°C
App
Temp
°C
Dew
Point
°C
Rel
Hum
%
Delta-T
°C
Wind Press
QNH
hPa
Press
MSL
hPa
Rain since
9am
mm
Dir  Spd
km/h
Gust
km/h
Spd
kts
Gust
kts
14/11:30pm 10.3 10.4 10.3 100 0.0 CALM 0 0 0 0 1013.0 1013.2 1.6
14/11:00pm 10.7 10.9 10.7 100 0.0 CALM 0 0 0 0 1013.1 1013.3 1.4
14/10:30pm 10.6 10.1 10.6 100 0.0 SE 4 6 2 3 1013.1 1013.3 1.4
14/10:00pm 10.7 9.8 10.7 100 0.0 S 6 7 3 4 1013.1 1013.3 1.4
14/09:30pm 10.7 9.6 10.7 100 0.0 WSW 7 7 4 4 1013.2 1013.4 1.2
14/09:00pm 10.9 10.1 10.9 100 0.0 S 6 7 3 4 1013.1 1013.3 1.2
14/08:30pm 11.1 10.1 10.9 99 0.1 SW 7 7 4 4 1013.0 1013.2 1.2
14/08:00pm 11.1 10.2 10.8 98 0.2 WSW 6 9 3 5 1012.9 1013.1 1.0
14/07:30pm 11.7 10.8 10.8 94 0.5 S 6 9 3 5 1012.7 1012.9 1.0
14/07:00pm 11.6 10.9 11.4 99 0.1 SSW 6 7 3 4 1012.5 1012.7 1.0
14/06:30pm 11.5 10.7 11.2 98 0.2 WSW 6 7 3 4 1012.4 1012.6 1.0
14/06:00pm 12.3 11.4 10.7 90 0.8 S 6 7 3 4 1012.3 1012.5 1.0
14/05:30pm 12.8 11.7 10.7 87 1.1 SE 7 9 4 5 1012.0 1012.2 1.0
14/05:00pm 13.4 12.3 10.0 80 1.8 ESE 6 9 3 5 1012.1 1012.3 1.0
14/04:30pm 13.7 13.0 9.9 78 2.0 ESE 4 6 2 3 1012.2 1012.4 1.0
14/04:00pm 13.8 12.5 9.8 77 2.1 ESE 7 11 4 6 1012.0 1012.2 1.0
14/03:30pm 14.0 12.5 10.6 80 1.8 SE 9 13 5 7 1011.9 1012.1 1.0
14/03:00pm 14.3 12.5 10.9 80 1.8 ESE 11 17 6 9 1012.1 1012.3 1.0
14/02:30pm 14.4 12.8 11.4 82 1.6 SE 11 15 6 8 1012.3 1012.5 1.0
14/02:00pm 14.2 12.1 11.0 81 1.7 SE 13 20 7 11 1012.4 1012.6 1.0
14/01:30pm 14.0 12.4 11.7 86 1.2 ESE 11 19 6 10 1012.7 1012.9 1.0
14/01:00pm 13.4 12.1 11.3 87 1.1 SE 9 15 5 8 1013.1 1013.3 1.0
14/12:30pm 12.9 11.0 11.8 93 0.6 SE 13 17 7 9 1013.5 1013.7 1.0
14/12:00pm 12.2 10.4 12.0 99 0.1 ENE 13 19 7 10 1014.2 1014.5 1.0
14/11:30am 11.9 10.0 11.7 99 0.1 N 13 17 7 9 1015.0 1015.3 0.8
14/11:00am 12.3 11.3 12.3 100 0.0 NNE 9 13 5 7 1015.1 1015.4 0.2
14/10:30am 11.6 10.0 11.6 100 0.0 NNW 11 24 6 13 1014.8 1015.1 0.2
14/10:00am 11.6 12.1 11.6 100 0.0 CALM 0 0 0 0 1014.9 1015.2 0.0
14/09:30am 11.3 11.0 11.3 100 0.0 SW 4 9 2 5 1014.9 1015.2 0.0
14/09:00am 10.6 9.1 10.6 100 0.0 SSW 9 11 5 6 1014.7 1015.0 1.8
14/08:30am 10.2 10.3 10.2 100 0.0 CALM 0 0 0 0 1014.9 1015.2 1.8
14/08:00am 9.8 9.4 9.8 100 0.0 SSW 2 7 1 4 1014.4 1014.7 1.8
14/07:30am 9.5 8.1 9.5 100 0.0 SE 7 9 4 5 1014.3 1014.6 1.8
14/07:17am 9.6 8.4 9.6 100 0.0 ESE 6 11 3 6 1014.3 1014.6 1.8
14/07:00am 9.1 7.6 9.1 100 0.0 SE 7 13 4 7 1013.9 1014.1 1.8
14/06:30am 9.1 7.6 9.1 100 0.0 NE 7 9 4 5 1014.1 1014.3 1.8
14/06:00am 9.4 8.5 9.4 100 0.0 SSW 4 6 2 3 1013.9 1014.1 1.8
14/05:52am 9.4 8.2 9.4 100 0.0 SW 6 7 3 4 1013.8 1014.0 1.8
14/05:51am 9.3 8.0 9.3 100 0.0 SW 6 7 3 4 1013.8 1014.0 1.8
14/05:30am 9.6 7.8 9.6 100 0.0 SSW 9 11 5 6 1013.6 1013.8 1.8
14/05:00am 9.3 7.1 9.3 100 0.0 S 11 19 6 10 1013.6 1013.8 1.8
14/04:30am 9.5 8.1 9.5 100 0.0 E 7 9 4 5 1013.5 1013.7 1.8
14/04:09am 9.6 9.5 9.6 100 0.0 CALM 0 4 0 2 1013.7 1013.9 1.6
14/04:00am 9.7 9.7 9.7 100 0.0 CALM 0 7 0 4 1013.8 1014.0 1.6
14/03:30am 9.8 8.5 9.8 100 0.0 NNW 7 9 4 5 1013.5 1013.7 1.6
14/03:00am 10.2 7.8 10.2 100 0.0 E 13 15 7 8 1013.3 1013.5 1.6
14/02:38am 10.0 8.3 10.0 100 0.0 ENE 9 11 5 6 1013.9 1014.1 1.6
14/02:30am 9.8 8.1 9.8 100 0.0 N 9 13 5 7 1014.0 1014.2 1.2
14/02:22am 9.6 7.1 9.6 100 0.0 NNW 13 20 7 11 1014.4 1014.7 0.6
14/02:00am 8.5 6.8 8.5 100 0.0 E 7 11 4 6 1014.0 1014.2 0.0
14/01:30am 7.5 6.9 7.5 100 0.0 CALM 0 0 0 0 1014.5 1014.8 0.0
14/01:00am 7.2 5.2 7.2 100 0.0 SSE 7 9 4 5 1014.6 1014.9 0.0
14/12:54am 6.9 4.9 6.9 100 0.0 SSW 7 9 4 5 1014.7 1015.0 0.0
14/12:30am 6.4 4.4 6.4 100 0.0 ESE 6 6 3 3 1014.5 1014.8 0.0
14/12:17am 6.0 3.9 6.0 100 0.0 ESE 6 7 3 4 1014.5 1014.8 0.0
14/12:00am 6.2 4.2 6.2 100 0.0 ESE 6 7 3 4 1014.6 1014.9 0.0
 
Date/Time
EST
Temp
°C
App
Temp
°C
Dew
Point
°C
Rel
Hum
%
Delta-T
°C
Wind Press
QNH
hPa
Press
MSL
hPa
Rain since
9am
mm
Dir  Spd
km/h
Gust
km/h
Spd
kts
Gust
kts
13/11:30pm 6.4 4.2 6.4 100 0.0 SSE 7 9 4 5 1014.6 1014.9 0.0
13/11:20pm 6.0 3.8 6.0 100 0.0 SSE 7 9 4 5 1014.7 1015.0 0.0
13/11:00pm 6.3 4.3 6.3 100 0.0 E 6 7 3 4 1014.6 1014.9 0.0
13/10:30pm 7.4 5.5 7.4 100 0.0 N 7 9 4 5 1014.6 1014.9 0.0
13/10:27pm 7.7 5.8 7.7 100 0.0 N 7 9 4 5 1014.6 1014.9 0.0
13/10:04pm 7.6 6.7 7.6 100 0.0 W 2 6 1 3 1014.6 1014.9 0.0
13/10:00pm 7.6 7.0 7.6 100 0.0 CALM 0 6 0 3 1014.6 1014.9 0.0
13/09:30pm 8.4 8.0 8.4 100 0.0 CALM 0 6 0 3 1014.5 1014.8 0.0
13/09:00pm 9.5 9.4 9.5 100 0.0 CALM 0 0 0 0 1014.4 1014.7 0.0
13/08:30pm 9.1 8.9 9.1 100 0.0 CALM 0 0 0 0 1014.1 1014.3 0.0
13/08:21pm 9.0 8.8 8.9 99 0.0 CALM 0 0 0 0 1014.0 1014.2 0.0
13/08:00pm 9.3 7.8 9.2 99 0.0 NW 7 9 4 5 1013.9 1014.1 0.0
13/07:30pm 11.4 10.6 11.2 99 0.1 N 6 7 3 4 1013.5 1013.7 0.0
13/07:00pm 11.6 10.3 11.1 97 0.3 NE 9 11 5 6 1013.3 1013.5 0.0
13/06:30pm 11.9 10.6 11.1 95 0.4 ENE 9 11 5 6 1013.2 1013.4 0.0
13/06:00pm 12.4 11.3 10.8 90 0.8 ENE 7 9 4 5 1012.8 1013.0 0.0
13/05:30pm 14.0 12.7 11.2 83 1.5 ENE 9 11 5 6 1012.4 1012.6 0.0
13/05:00pm 15.0 13.2 11.0 77 2.1 NNE 11 13 6 7 1012.2 1012.4 0.0
13/04:30pm 16.3 14.3 11.5 73 2.6 NNE 13 17 7 9 1012.2 1012.4 0.0
13/04:00pm 16.2 14.1 11.2 72 2.7 N 13 19 7 10 1012.4 1012.6 0.0
13/03:30pm 16.2 13.7 10.9 71 2.9 N 15 20 8 11 1012.5 1012.7 0.0
13/03:00pm 16.1 14.2 11.9 76 2.3 NNE 13 17 7 9 1012.7 1012.9 0.0
13/02:30pm 16.0 13.9 11.0 72 2.7 N 13 17 7 9 1012.6 1012.8 0.0
13/02:00pm 16.2 14.5 11.2 72 2.7 NNE 11 19 6 10 1012.4 1012.6 0.0
13/01:30pm 16.5 14.1 11.4 72 2.8 N 15 20 8 11 1012.5 1012.7 0.0
13/01:00pm 15.3 13.3 11.5 78 2.1 N 13 17 7 9 1012.7 1012.9 0.0
13/12:43pm 15.1 13.4 11.3 78 2.0 N 11 15 6 8 1012.9 1013.1 0.0
13/12:30pm 15.5 14.0 11.9 79 2.0 N 11 20 6 11 1013.1 1013.3 0.0
13/12:00pm 14.4 12.5 11.9 85 1.4 NNE 13 19 7 10 1013.5 1013.7 0.0
13/11:30am 13.5 11.6 11.9 90 0.9 NNE 13 17 7 9 1013.8 1014.0 0.0
13/11:00am 13.1 10.4 11.8 92 0.7 NNE 17 20 9 11 1014.2 1014.5 0.0
13/10:30am 12.8 11.0 12.0 95 0.4 N 13 17 7 9 1014.3 1014.6 0.0
13/10:00am 12.5 10.7 12.0 97 0.3 N 13 17 7 9 1014.3 1014.6 0.0
13/09:30am 12.1 10.6 11.9 99 0.1 N 11 15 6 8 1014.3 1014.6 0.0
13/09:00am 11.5 10.3 11.5 100 0.0 N 9 13 5 7 1014.0 1014.2 0.8
13/08:30am 10.8 9.7 10.8 100 0.0 N 7 11 4 6 1013.8 1014.0 0.8
13/08:00am 10.4 10.2 10.4 100 0.0 N 2 7 1 4 1013.6 1013.8 0.8
13/07:30am 9.8 9.8 9.8 100 0.0 CALM 0 0 0 0 1013.3 1013.5 0.8
13/07:00am 9.6 9.5 9.6 100 0.0 CALM 0 0 0 0 1012.9 1013.1 0.8
13/06:30am 9.5 9.4 9.5 100 0.0 CALM 0 0 0 0 1012.6 1012.8 0.8
13/06:00am 9.3 9.2 9.3 100 0.0 CALM 0 0 0 0 1012.4 1012.6 0.8
13/05:30am 9.1 8.9 9.1 100 0.0 CALM 0 0 0 0 1012.0 1012.2 0.8
13/05:17am 9.0 8.8 9.0 100 0.0 CALM 0 0 0 0 1012.0 1012.2 0.8
13/05:00am 9.0 8.8 9.0 100 0.0 CALM 0 0 0 0 1011.8 1012.0 0.8
13/04:30am 9.5 9.4 9.5 100 0.0 CALM 0 4 0 2 1011.3 1011.6 0.8
13/04:11am 9.7 8.5 9.7 100 0.0 N 6 7 3 4 1011.1 1011.4 0.8
13/04:00am 9.8 8.7 9.8 100 0.0 NNW 6 7 3 4 1011.1 1011.4 0.8
13/03:30am 9.7 8.3 9.7 100 0.0 NNE 7 9 4 5 1011.0 1011.3 0.8
13/03:12am 9.9 8.6 9.9 100 0.0 N 7 7 4 4 1011.1 1011.4 0.8
13/03:00am 9.8 8.7 9.8 100 0.0 NNE 6 7 3 4 1011.1 1011.4 0.8
13/02:30am 9.9 8.8 9.9 100 0.0 NE 6 7 3 4 1011.3 1011.6 0.8
13/02:00am 9.1 8.2 9.1 100 0.0 SSE 4 6 2 3 1011.4 1011.7 0.8
13/01:35am 9.1 7.8 9.1 100 0.0 E 6 7 3 4 1011.4 1011.7 0.8
13/01:30am 8.9 7.5 8.9 100 0.0 E 6 7 3 4 1011.4 1011.7 0.8
13/01:00am 9.4 8.2 9.4 100 0.0 NE 6 7 3 4 1011.3 1011.6 0.6
13/12:45am 9.8 8.7 9.8 100 0.0 NNE 6 7 3 4 1011.3 1011.6 0.6
13/12:30am 9.9 8.8 9.9 100 0.0 NNE 6 7 3 4 1011.4 1011.7 0.6
13/12:13am 10.1 9.0 10.1 100 0.0 NNE 6 7 3 4 1011.4 1011.7 0.6
13/12:00am 9.4 9.3 9.4 100 0.0 CALM 0 0 0 0 1011.5 1011.8 0.6
 
Date/Time
EST
Temp
°C
App
Temp
°C
Dew
Point
°C
Rel
Hum
%
Delta-T
°C
Wind Press
QNH
hPa
Press
MSL
hPa
Rain since
9am
mm
Dir  Spd
km/h
Gust
km/h
Spd
kts
Gust
kts
12/11:44pm 9.5 9.0 9.5 100 0.0 ENE 2 6 1 3 1011.4 1011.7 0.6
12/11:30pm 9.8 9.4 9.8 100 0.0 ENE 2 6 1 3 1011.3 1011.6 0.6
12/11:29pm 9.8 9.4 9.8 100 0.0 E 2 6 1 3 1011.3 1011.6 0.6
12/11:10pm 9.9 9.2 9.9 100 0.0 NNE 4 6 2 3 1011.4 1011.7 0.6
12/11:00pm 9.8 9.8 9.8 100 0.0 CALM 0 0 0 0 1011.5 1011.8 0.0
12/10:30pm 9.5 9.4 9.5 100 0.0 CALM 0 0 0 0 1011.5 1011.8 0.0
12/10:00pm 9.5 8.7 9.5 100 0.0 WSW 4 6 2 3 1011.7 1011.9 0.0
12/09:30pm 9.8 9.8 9.8 100 0.0 CALM 0 6 0 3 1011.4 1011.7 0.0
12/09:00pm 10.0 10.1 10.0 100 0.0 CALM 0 0 0 0 1011.4 1011.7 0.0
12/08:30pm 10.5 9.3 10.3 99 0.1 ESE 7 9 4 5 1011.0 1011.3 0.0
12/08:00pm 10.8 9.9 10.6 99 0.1 SSW 6 6 3 3 1010.8 1011.1 0.0
12/07:30pm 11.2 10.3 10.6 96 0.3 SW 6 7 3 4 1010.7 1011.0 0.0
12/07:00pm 11.6 9.7 10.5 93 0.6 E 11 13 6 7 1010.4 1010.7 0.0
12/06:30pm 11.9 10.8 10.5 91 0.7 SE 7 9 4 5 1010.3 1010.6 0.0
12/06:00pm 11.9 11.0 10.8 93 0.6 SE 6 7 3 4 1009.9 1010.2 0.0
12/05:30pm 12.4 11.3 10.8 90 0.8 ESE 7 9 4 5 1009.8 1010.1 0.0
12/05:00pm 12.9 12.4 10.6 86 1.2 ESE 4 7 2 4 1009.7 1010.0 0.0
12/04:30pm 13.4 12.2 10.2 81 1.7 NE 7 11 4 6 1009.8 1010.1 0.0
12/04:00pm 13.6 11.2 10.0 79 1.9 NNE 13 15 7 8 1009.6 1009.9 0.0
12/03:30pm 13.5 11.1 9.9 79 1.9 NNE 13 17 7 9 1009.7 1010.0 0.0
12/03:00pm 13.2 11.5 10.0 81 1.7 NNE 9 13 5 7 1009.7 1010.0 0.0
12/02:30pm 13.2 9.5 9.5 78 1.9 NNE 19 22 10 12 1009.8 1010.1 0.0
12/02:00pm 13.7 11.2 9.7 77 2.1 NNE 13 17 7 9 1009.9 1010.2 0.0
12/01:30pm 13.4 11.3 9.6 78 2.0 NE 11 15 6 8 1010.2 1010.5 0.0
12/01:00pm 12.4 10.5 8.9 79 1.8 NE 9 13 5 7 1010.6 1010.9 0.0
12/12:30pm 12.5 9.8 9.0 79 1.8 NNE 13 15 7 8 1011.3 1011.6 0.0
12/12:00pm 12.3 10.7 8.6 78 1.9 NE 7 11 4 6 1011.9 1012.1 0.0
12/11:30am 12.3 10.2 8.2 76 2.0 NNE 9 13 5 7 1012.4 1012.6 0.0
12/11:00am 12.0 10.8 9.4 84 1.3 NE 6 9 3 5 1012.7 1012.9 0.0
12/10:30am 10.9 9.5 9.0 88 1.0 SE 6 6 3 3 1013.1 1013.3 0.0
12/10:00am 10.1 9.9 9.2 94 0.4 CALM 0 0 0 0 1013.4 1013.6 0.0
12/09:30am 9.1 8.9 9.0 99 0.0 CALM 0 0 0 0 1013.6 1013.8 0.0
12/09:00am 8.7 8.4 8.7 100 0.0 CALM 0 0 0 0 1013.6 1013.8 0.6
12/08:30am 8.1 7.7 8.1 100 0.0 CALM 0 0 0 0 1013.5 1013.7 0.6
12/08:00am 7.6 7.0 7.6 100 0.0 CALM 0 0 0 0 1013.6 1013.8 0.6
12/07:30am 7.3 5.9 7.3 100 0.0 SSE 4 6 2 3 1013.7 1013.9 0.6
12/07:00am 7.1 5.3 7.1 100 0.0 SSW 6 7 3 4 1013.5 1013.7 0.6
12/06:30am 7.2 5.4 7.2 100 0.0 S 6 7 3 4 1013.5 1013.7 0.6
12/06:00am 6.9 4.8 6.8 99 0.0 N 7 7 4 4 1013.6 1013.8 0.6
12/05:30am 7.0 5.1 6.9 99 0.0 ESE 6 7 3 4 1013.5 1013.7 0.4
12/05:00am 7.0 6.3 6.9 99 0.0 CALM 0 0 0 0 1013.6 1013.8 0.4
12/04:30am 6.7 5.5 6.6 99 0.0 W 2 6 1 3 1013.7 1013.9 0.0
12/04:00am 6.6 4.7 6.5 99 0.0 W 6 7 3 4 1013.9 1014.1 0.0
12/03:30am 7.0 5.0 6.9 99 0.0 ESE 7 9 4 5 1013.8 1014.0 0.0
12/03:00am 6.9 4.8 6.8 99 0.0 WSW 7 7 4 4 1014.5 1014.8 0.0
12/02:30am 7.0 5.5 6.9 99 0.0 SE 4 7 2 4 1014.6 1014.9 0.0
12/02:00am 6.8 6.0 6.7 99 0.0 CALM 0 0 0 0 1015.1 1015.4 0.0
12/01:30am 6.6 5.8 6.5 99 0.0 CALM 0 0 0 0 1015.2 1015.5 0.0

Other formats

Comma delimited format used in spreadsheet applications
http://www.bom.gov.au/fwo/IDV60801/IDV60801.94889.axf

JavaScript Object Notation format (JSON) in row-major order
http://www.bom.gov.au/fwo/IDV60801/IDV60801.94889.json

Data quality

Most of these data are generated automatically and are frequently updated. Quality checks on data are not normally performed. It is possible for incorrect values to appear. Refer to information at About Latest Weather Observations and please check the disclaimer before using these data.